Terminal Aerodrome Forecast
Issued by NWS

Home | Current Version | Previous Version | Text Only | Print | Product List | Glossary On
Versions: 1 2 3 4 5 6 7 8 9
000
FTUS42 KILM 271100
TAFCRE
TAF
KCRE 271120Z 2712/2812 00000KT 1 1/2SM BR SCT300
     FM271300 VRB04KT P6SM SCT250=

USA.gov is the U.S. government's official web portal to all federal, state and local government web resources and services.